createdAt,value
2018-02-27T00:00:48.911Z,99589.08
2018-02-27T00:03:16.407Z,99593.89
2018-02-27T00:05:43.887Z,99574.06
2018-02-27T00:08:11.360Z,99577.59
2018-02-27T00:10:38.889Z,99567.48
2018-02-27T00:13:06.391Z,99568.78
2018-02-27T00:15:33.873Z,99575.05
2018-02-27T00:18:01.360Z,99568.25
2018-02-27T00:20:28.895Z,99571.03
2018-02-27T00:22:56.500Z,99555.05
2018-02-27T00:25:23.971Z,99560.98
2018-02-27T00:27:51.470Z,99554.46
2018-02-27T00:30:19.000Z,99549.15
2018-02-27T00:35:18.347Z,99561.99
2018-02-27T00:37:45.807Z,99554.91
2018-02-27T00:40:13.615Z,99555.16
2018-02-27T00:42:41.147Z,99539.17
2018-02-27T00:45:08.611Z,99542.02
2018-02-27T00:47:36.079Z,99556.16
2018-02-27T00:50:03.547Z,99540.42
2018-02-27T00:52:31.260Z,99535.22
2018-02-27T00:54:58.831Z,99540.61
2018-02-27T00:57:26.343Z,99534.41
2018-02-27T00:59:53.809Z,99540.83
2018-02-27T01:02:21.285Z,99535.69
2018-02-27T01:04:48.764Z,99536.98
2018-02-27T01:07:16.244Z,99537.25
2018-02-27T01:09:43.731Z,99528.44
2018-02-27T01:12:11.243Z,99549.02
2018-02-27T01:14:38.758Z,99533.39
2018-02-27T01:17:06.335Z,99528.31
2018-02-27T01:19:33.819Z,99516.05
2018-02-27T01:22:01.276Z,99528.82
2018-02-27T01:24:28.727Z,99524.27
2018-02-27T01:26:56.195Z,99527.20
2018-02-27T01:29:24.360Z,99505.45
2018-02-27T01:31:51.906Z,99507.52
2018-02-27T01:34:19.396Z,99522.36
2018-02-27T01:36:47.054Z,99506.70
2018-02-27T01:39:14.746Z,99506.50
2018-02-27T01:41:42.272Z,99514.69
2018-02-27T01:44:09.751Z,99519.20
2018-02-27T01:46:37.215Z,99507.48
2018-02-27T01:49:04.700Z,99508.48
2018-02-27T01:51:32.232Z,99529.49
2018-02-27T01:53:59.687Z,99507.63
2018-02-27T01:56:27.655Z,99502.16
2018-02-27T01:58:55.115Z,99496.05
2018-02-27T02:01:22.658Z,99506.95
2018-02-27T02:03:50.152Z,99496.05
2018-02-27T02:06:17.693Z,99495.97
2018-02-27T02:08:45.144Z,99495.30
2018-02-27T02:11:12.627Z,99496.64
2018-02-27T02:13:40.092Z,99498.22
2018-02-27T02:16:07.647Z,99495.34
2018-02-27T02:18:35.163Z,99479.56
2018-02-27T02:21:02.638Z,99486.01
2018-02-27T02:23:30.116Z,99478.51
2018-02-27T02:25:57.583Z,99475.67
2018-02-27T02:28:25.046Z,99487.94
2018-02-27T02:30:52.529Z,99477.82
2018-02-27T02:33:20.021Z,99481.61
2018-02-27T02:35:47.477Z,99492.06
2018-02-27T02:38:15.079Z,99483.09
2018-02-27T02:40:42.538Z,99467.10
2018-02-27T02:43:10.016Z,99480.42
2018-02-27T02:45:37.495Z,99473.38
2018-02-27T02:48:04.967Z,99471.80
2018-02-27T02:50:32.660Z,99483.34
2018-02-27T02:53:00.111Z,99476.16
2018-02-27T02:55:27.595Z,99490.09
2018-02-27T02:57:55.074Z,99477.02
2018-02-27T03:00:22.717Z,99483.45
2018-02-27T03:02:50.214Z,99477.58
2018-02-27T03:05:17.698Z,99480.05
2018-02-27T03:07:45.178Z,99495.22
2018-02-27T03:10:12.701Z,99483.58
2018-02-27T03:12:40.352Z,99485.69
2018-02-27T03:15:07.837Z,99490.77
2018-02-27T03:17:35.316Z,99484.70
2018-02-27T03:20:02.852Z,99480.36
2018-02-27T03:22:30.987Z,99484.14
2018-02-27T03:24:58.483Z,99490.34
2018-02-27T03:27:25.953Z,99482.53
2018-02-27T03:29:53.414Z,99481.41
2018-02-27T03:32:20.899Z,99488.66
2018-02-27T03:34:48.369Z,99492.18
2018-02-27T03:37:15.871Z,99501.81
2018-02-27T03:39:43.339Z,99487.98
2018-02-27T03:42:10.815Z,99480.23
2018-02-27T03:44:38.272Z,99479.06
2018-02-27T03:47:05.736Z,99481.73
2018-02-27T03:49:33.219Z,99490.19
2018-02-27T03:52:00.692Z,99465.34
2018-02-27T03:54:28.355Z,99470.32
2018-02-27T03:56:55.833Z,99480.66
2018-02-27T03:59:23.311Z,99456.48
2018-02-27T04:01:50.770Z,99458.59
2018-02-27T04:04:18.235Z,99450.59
2018-02-27T04:06:45.927Z,99448.66
2018-02-27T04:09:13.637Z,99458.05
2018-02-27T04:11:41.202Z,99451.42
2018-02-27T04:14:08.700Z,99461.89
2018-02-27T04:16:36.221Z,99462.52
2018-02-27T04:19:03.726Z,99457.67
2018-02-27T04:21:31.276Z,99458.69
2018-02-27T04:23:58.917Z,99459.47
2018-02-27T04:26:26.383Z,99469.45
2018-02-27T04:28:53.847Z,99464.30
2018-02-27T04:31:21.586Z,99465.29
2018-02-27T04:33:49.037Z,99470.81
2018-02-27T04:36:16.543Z,99463.92
2018-02-27T04:38:44.055Z,99468.63
2018-02-27T04:41:11.512Z,99463.05
2018-02-27T04:43:38.970Z,99465.78
2018-02-27T04:46:06.456Z,99460.58
2018-02-27T04:48:33.966Z,99456.25
2018-02-27T04:51:01.444Z,99470.67
2018-02-27T04:53:29.951Z,99461.23
2018-02-27T04:55:57.440Z,99472.70
2018-02-27T04:58:25.018Z,99455.57
2018-02-27T05:00:52.499Z,99467.23
2018-02-27T05:03:19.960Z,99483.03
2018-02-27T05:05:47.424Z,99462.52
2018-02-27T05:08:15.250Z,99464.55
2018-02-27T05:10:42.755Z,99457.45
2018-02-27T05:13:10.515Z,99478.73
2018-02-27T05:15:38.000Z,99473.14
2018-02-27T05:18:05.459Z,99462.18
2018-02-27T05:20:32.985Z,99459.12
2018-02-27T05:23:00.442Z,99460.90
2018-02-27T05:25:27.961Z,99457.41
2018-02-27T05:27:55.477Z,99458.53
2018-02-27T05:30:23.190Z,99460.26
2018-02-27T05:32:50.724Z,99495.83
2018-02-27T05:35:18.193Z,99460.22
2018-02-27T05:37:45.677Z,99464.41
2018-02-27T05:40:13.383Z,99467.98
2018-02-27T05:42:41.143Z,99461.37
2018-02-27T05:45:08.708Z,99461.88
2018-02-27T05:47:36.167Z,99489.81
2018-02-27T05:50:03.701Z,99457.97
2018-02-27T05:52:31.973Z,99470.16
2018-02-27T05:54:59.450Z,99460.37
2018-02-27T05:57:26.923Z,99476.05
2018-02-27T05:59:54.408Z,99470.97
2018-02-27T06:02:21.887Z,99459.81
2018-02-27T06:04:49.367Z,99453.56
2018-02-27T06:07:16.876Z,99464.03
2018-02-27T06:09:44.330Z,99461.09
2018-02-27T06:12:11.787Z,99473.95
2018-02-27T06:14:39.256Z,99476.88
2018-02-27T06:17:07.724Z,99477.51
2018-02-27T06:19:35.179Z,99465.61
2018-02-27T06:22:05.937Z,99499.49
2018-02-27T06:24:33.984Z,99466.30
2018-02-27T06:27:04.826Z,99462.80
2018-02-27T06:29:32.305Z,99467.70
2018-02-27T06:31:59.800Z,99466.20
2018-02-27T06:34:27.386Z,99475.84
2018-02-27T06:36:54.887Z,99465.39
2018-02-27T06:39:22.351Z,99478.98
2018-02-27T06:41:49.859Z,99467.97
2018-02-27T06:44:17.561Z,99464.52
2018-02-27T06:46:45.067Z,99474.63
2018-02-27T06:49:12.551Z,99472.53
2018-02-27T06:51:40.010Z,99479.27
2018-02-27T06:54:07.503Z,99452.17
2018-02-27T06:56:35.018Z,99447.91
2018-02-27T06:59:02.479Z,99471.42
2018-02-27T07:01:29.942Z,99471.70
2018-02-27T07:03:57.391Z,99473.66
2018-02-27T07:06:25.106Z,99487.22
2018-02-27T07:08:52.616Z,99476.51
2018-02-27T07:11:20.100Z,99489.34
2018-02-27T07:13:47.585Z,99480.60
2018-02-27T07:16:15.185Z,99485.20
2018-02-27T07:18:42.650Z,99486.92
2018-02-27T07:21:10.124Z,99482.14
2018-02-27T07:23:37.582Z,99481.06
2018-02-27T07:26:05.064Z,99497.48
2018-02-27T07:28:32.807Z,99479.00
2018-02-27T07:31:00.264Z,99474.50
2018-02-27T07:33:27.786Z,99483.08
2018-02-27T07:35:55.297Z,99477.26
2018-02-27T07:38:22.828Z,99482.05
2018-02-27T07:40:50.312Z,99470.52
2018-02-27T07:43:17.871Z,99515.87
2018-02-27T07:45:45.326Z,99492.67
2018-02-27T07:48:12.790Z,99485.09
2018-02-27T07:50:40.290Z,99474.54
2018-02-27T07:53:07.760Z,99473.77
2018-02-27T07:55:35.260Z,99479.56
2018-02-27T07:58:02.734Z,99475.05
2018-02-27T08:00:31.291Z,99485.13
2018-02-27T08:03:00.169Z,99486.30
2018-02-27T08:05:30.611Z,99478.18
2018-02-27T08:07:58.106Z,99481.11
2018-02-27T08:10:25.605Z,99480.66
2018-02-27T08:12:53.076Z,99474.05
2018-02-27T08:15:23.055Z,99475.65
2018-02-27T08:17:52.719Z,99470.08
2018-02-27T08:20:21.948Z,99490.03
2018-02-27T08:22:53.334Z,99472.06
2018-02-27T08:25:20.816Z,99463.47
2018-02-27T08:27:51.347Z,99477.83
2018-02-27T08:30:20.448Z,99462.71
2018-02-27T08:32:50.161Z,99466.80
2018-02-27T08:35:17.632Z,99463.61
2018-02-27T08:37:45.128Z,99477.23
2018-02-27T08:40:12.631Z,99474.80
2018-02-27T08:42:40.284Z,99465.47
2018-02-27T08:45:07.749Z,99469.13
2018-02-27T08:47:35.228Z,99467.34
2018-02-27T08:50:02.903Z,99481.17
2018-02-27T08:52:30.597Z,99470.61
2018-02-27T08:54:58.275Z,99481.38
2018-02-27T08:57:25.756Z,99475.59
2018-02-27T08:59:54.469Z,99481.55
2018-02-27T09:02:27.633Z,99485.39
2018-02-27T09:04:55.818Z,99474.48
2018-02-27T09:07:23.324Z,99473.91
2018-02-27T09:09:50.794Z,99470.49
2018-02-27T09:12:18.803Z,99468.93
2018-02-27T09:14:46.258Z,99463.77
2018-02-27T09:17:13.727Z,99460.83
2018-02-27T09:19:41.284Z,99460.50
2018-02-27T09:22:09.940Z,99464.00
2018-02-27T09:24:37.423Z,99460.02
2018-02-27T09:27:05.037Z,99464.19
2018-02-27T09:29:32.500Z,99463.09
2018-02-27T09:32:02.511Z,99454.41
2018-02-27T09:34:30.360Z,99448.45
2018-02-27T09:36:57.843Z,99454.45
2018-02-27T09:39:25.316Z,99447.27
2018-02-27T09:41:52.787Z,99446.22
2018-02-27T09:44:20.265Z,99456.73
2018-02-27T09:46:47.769Z,99461.69
2018-02-27T09:49:15.250Z,99452.95
2018-02-27T09:51:43.012Z,99440.92
2018-02-27T09:54:10.488Z,99443.95
2018-02-27T09:56:37.952Z,99450.11
2018-02-27T09:59:05.432Z,99456.12
2018-02-27T10:01:32.895Z,99444.87
2018-02-27T10:04:00.372Z,99437.36
2018-02-27T10:06:27.968Z,99443.14
2018-02-27T10:08:55.416Z,99461.44
2018-02-27T10:11:22.955Z,99449.19
2018-02-27T10:13:50.411Z,99445.47
2018-02-27T10:16:17.889Z,99450.95
2018-02-27T10:18:45.810Z,99452.38
2018-02-27T10:21:13.468Z,99453.48
2018-02-27T10:23:40.952Z,99439.75
2018-02-27T10:26:08.430Z,99445.49
2018-02-27T10:28:35.927Z,99442.38
2018-02-27T10:31:03.418Z,99442.11
2018-02-27T10:33:30.933Z,99444.02
2018-02-27T10:35:58.472Z,99441.67
2018-02-27T10:38:25.946Z,99445.92
2018-02-27T10:40:53.439Z,99435.73
2018-02-27T10:43:21.344Z,99436.20
2018-02-27T10:45:48.871Z,99446.56
2018-02-27T10:48:16.364Z,99430.97
2018-02-27T10:50:43.863Z,99438.05
2018-02-27T10:53:11.380Z,99422.41
2018-02-27T10:55:38.874Z,99416.91
2018-02-27T10:58:06.347Z,99447.45
2018-02-27T11:00:39.328Z,99436.97
2018-02-27T11:03:06.791Z,99423.09
2018-02-27T11:05:34.268Z,99424.18
2018-02-27T11:08:01.750Z,99417.88
2018-02-27T11:10:29.489Z,99421.20
2018-02-27T11:12:56.978Z,99415.31
2018-02-27T11:15:24.487Z,99420.88
2018-02-27T11:17:51.964Z,99423.09
2018-02-27T11:20:20.160Z,99422.66
2018-02-27T11:22:47.649Z,99426.81
2018-02-27T11:25:15.145Z,99428.59
2018-02-27T11:27:42.595Z,99438.80
2018-02-27T11:30:10.075Z,99430.67
2018-02-27T11:32:37.553Z,99430.27
2018-02-27T11:35:05.058Z,99426.49
2018-02-27T11:37:32.542Z,99427.17
2018-02-27T11:40:00.000Z,99436.03
2018-02-27T11:42:27.604Z,99443.69
2018-02-27T11:44:55.079Z,99430.20
2018-02-27T11:47:22.567Z,99424.45
2018-02-27T11:49:50.040Z,99435.01
2018-02-27T11:52:22.399Z,99464.41
2018-02-27T11:54:54.886Z,99425.61
2018-02-27T11:57:25.376Z,99423.16
2018-02-27T11:59:53.780Z,99443.30
2018-02-27T12:02:26.967Z,99422.06
2018-02-27T12:04:55.030Z,99427.79
2018-02-27T12:07:24.368Z,99421.69
2018-02-27T12:09:51.853Z,99437.34
2018-02-27T12:12:22.001Z,99414.55
2018-02-27T12:14:51.854Z,99431.91
2018-02-27T12:17:23.702Z,99423.94
2018-02-27T12:19:51.927Z,99410.38
2018-02-27T12:22:19.459Z,99411.81
2018-02-27T12:24:50.812Z,99411.41
2018-02-27T12:27:18.296Z,99412.61
2018-02-27T12:29:45.845Z,99405.91
2018-02-27T12:32:13.330Z,99396.23
2018-02-27T12:34:40.813Z,99401.86
2018-02-27T12:37:09.316Z,99413.53
2018-02-27T12:39:36.808Z,99414.02
2018-02-27T12:42:04.445Z,99384.51
2018-02-27T12:44:31.947Z,99408.30
2018-02-27T12:46:59.427Z,99398.72
2018-02-27T12:49:26.904Z,99394.18
2018-02-27T12:51:54.376Z,99405.16
2018-02-27T12:54:21.854Z,99385.43
2018-02-27T12:56:49.314Z,99388.59
2018-02-27T12:59:16.775Z,99388.66
2018-02-27T13:01:44.314Z,99387.42
2018-02-27T13:04:11.793Z,99384.19
2018-02-27T13:06:39.254Z,99389.47
2018-02-27T13:09:06.759Z,99388.45
2018-02-27T13:11:38.142Z,99398.67
2018-02-27T13:14:07.923Z,99407.84
2018-02-27T13:16:38.059Z,99402.46
2018-02-27T13:19:06.185Z,99396.83
2018-02-27T13:21:34.486Z,99401.47
2018-02-27T13:24:02.582Z,99401.72
2018-02-27T13:26:32.092Z,99405.03
2018-02-27T13:29:03.740Z,99400.59
2018-02-27T13:31:31.224Z,99396.03
2018-02-27T13:33:58.683Z,99418.52
2018-02-27T13:36:28.235Z,99408.30
2018-02-27T13:38:55.747Z,99407.21
2018-02-27T13:41:26.204Z,99412.24
2018-02-27T13:43:53.718Z,99401.09
2018-02-27T13:46:21.171Z,99398.87
2018-02-27T13:48:48.645Z,99404.98
2018-02-27T13:51:16.211Z,99402.61
2018-02-27T13:53:43.665Z,99399.03
2018-02-27T13:56:11.143Z,99401.08
2018-02-27T13:58:38.627Z,99398.70
2018-02-27T14:01:06.147Z,99404.06
2018-02-27T14:03:33.671Z,99420.29
2018-02-27T14:06:01.121Z,99402.12
2018-02-27T14:08:28.602Z,99404.54
2018-02-27T14:10:56.076Z,99405.12
2018-02-27T14:13:23.548Z,99400.33
2018-02-27T14:15:51.034Z,99399.45
2018-02-27T14:18:18.507Z,99396.37
2018-02-27T14:20:45.989Z,99394.27
2018-02-27T14:23:13.461Z,99409.83
2018-02-27T14:25:40.976Z,99403.20
2018-02-27T14:28:08.483Z,99405.05
2018-02-27T14:30:36.006Z,99391.17
2018-02-27T14:33:03.518Z,99384.88
2018-02-27T14:35:31.033Z,99404.33
2018-02-27T14:37:58.533Z,99399.89
2018-02-27T14:40:26.068Z,99414.47
2018-02-27T14:42:53.567Z,99391.44
2018-02-27T14:45:21.074Z,99388.42
2018-02-27T14:47:48.563Z,99394.66
2018-02-27T14:50:16.145Z,99406.91
2018-02-27T14:52:43.657Z,99406.20
2018-02-27T14:55:11.131Z,99410.73
2018-02-27T14:57:38.625Z,99408.00
2018-02-27T15:00:06.186Z,99414.06
2018-02-27T15:02:33.844Z,99433.02
2018-02-27T15:05:01.351Z,99408.88
2018-02-27T15:07:28.814Z,99418.43
2018-02-27T15:09:56.263Z,99419.73
2018-02-27T15:12:24.107Z,99415.57
2018-02-27T15:14:51.577Z,99426.36
2018-02-27T15:17:19.027Z,99409.91
2018-02-27T15:19:46.548Z,99414.20
2018-02-27T15:22:14.361Z,99413.26
2018-02-27T15:24:41.932Z,99440.75
2018-02-27T15:27:09.433Z,99420.45
2018-02-27T15:29:36.905Z,99418.23
2018-02-27T15:32:04.421Z,99416.03
2018-02-27T15:34:31.949Z,99417.45
2018-02-27T15:36:59.429Z,99422.97
2018-02-27T15:39:27.843Z,99446.49
2018-02-27T15:41:55.361Z,99437.45
2018-02-27T15:44:22.893Z,99435.96
2018-02-27T15:46:50.366Z,99442.31
2018-02-27T15:49:17.880Z,99439.45
2018-02-27T15:51:45.341Z,99435.30
2018-02-27T15:54:12.804Z,99452.25
2018-02-27T15:56:40.281Z,99455.23
2018-02-27T15:59:07.752Z,99441.39
2018-02-27T16:01:35.285Z,99445.55
2018-02-27T16:04:02.864Z,99459.37
2018-02-27T16:06:30.379Z,99452.03
2018-02-27T16:08:57.937Z,99454.22
2018-02-27T16:11:34.951Z,99465.34
2018-02-27T16:14:03.907Z,99460.34
2018-02-27T16:16:35.059Z,99448.94
2018-02-27T16:19:16.017Z,99447.95
2018-02-27T16:21:43.597Z,99460.61
2018-02-27T16:24:11.075Z,99474.97
2018-02-27T16:26:38.564Z,99479.62
2018-02-27T16:29:06.038Z,99482.03
2018-02-27T16:31:33.608Z,99469.37
2018-02-27T16:34:01.141Z,99475.52
2018-02-27T16:36:28.877Z,99482.64
2018-02-27T16:41:30.218Z,99494.89
2018-02-27T16:43:57.837Z,99492.36
2018-02-27T16:46:25.340Z,99491.56
2018-02-27T16:48:52.845Z,99502.67
2018-02-27T16:51:20.565Z,99501.73
2018-02-27T16:53:48.075Z,99522.41
2018-02-27T16:56:16.618Z,99505.97
2018-02-27T16:58:44.133Z,99509.00
2018-02-27T17:01:11.690Z,99517.43
2018-02-27T17:03:39.162Z,99520.74
2018-02-27T17:06:07.236Z,99514.59
2018-02-27T17:08:34.810Z,99523.08
2018-02-27T17:12:55.566Z,99536.23
2018-02-27T17:15:24.430Z,99536.83
2018-02-27T17:17:52.499Z,99525.23
2018-02-27T17:20:21.114Z,99543.52
2018-02-27T17:22:48.652Z,99523.05
2018-02-27T17:25:18.153Z,99529.19
2018-02-27T17:27:47.975Z,99536.55
2018-02-27T17:30:15.545Z,99541.89
2018-02-27T17:32:43.094Z,99535.27
2018-02-27T17:35:10.973Z,99531.39
2018-02-27T17:37:41.372Z,99537.31
2018-02-27T17:40:10.580Z,99536.45
2018-02-27T17:42:38.855Z,99534.20
2018-02-27T17:45:06.378Z,99538.11
2018-02-27T17:47:33.961Z,99544.94
2018-02-27T17:50:01.868Z,99538.98
2018-02-27T17:52:29.390Z,99549.22
2018-02-27T17:54:56.903Z,99539.72
2018-02-27T17:57:24.414Z,99545.88
2018-02-27T17:59:51.973Z,99539.84
2018-02-27T18:02:19.864Z,99552.25
2018-02-27T18:04:47.460Z,99537.69
2018-02-27T18:07:15.012Z,99543.77
2018-02-27T18:09:42.998Z,99554.31
2018-02-27T18:12:10.522Z,99547.59
2018-02-27T18:14:38.536Z,99534.46
2018-02-27T18:17:07.364Z,99550.58
2018-02-27T18:19:36.441Z,99543.27
2018-02-27T18:22:05.697Z,99532.35
2018-02-27T18:24:33.412Z,99541.42
2018-02-27T18:27:01.960Z,99544.94
2018-02-27T18:29:29.571Z,99547.79
2018-02-27T18:31:57.116Z,99541.73
2018-02-27T18:34:27.794Z,99546.53
2018-02-27T18:36:55.408Z,99561.78
2018-02-27T18:39:29.386Z,99545.92
2018-02-27T18:42:01.090Z,99555.72
2018-02-27T18:44:33.370Z,99556.72
2018-02-27T18:47:01.876Z,99550.87
2018-02-27T18:49:35.832Z,99550.66
2018-02-27T18:52:03.323Z,99546.80
2018-02-27T18:54:31.528Z,99559.44
2018-02-27T18:57:00.441Z,99572.02
2018-02-27T18:59:34.407Z,99565.94
2018-02-27T19:02:05.253Z,99566.69
2018-02-27T19:04:33.850Z,99581.37
2018-02-27T19:07:03.237Z,99579.05
2018-02-27T19:09:33.210Z,99574.13
2018-02-27T19:12:04.390Z,99578.95
2018-02-27T19:14:33.731Z,99577.03
2018-02-27T19:17:02.103Z,99569.03
2018-02-27T19:19:29.681Z,99575.05
2018-02-27T19:21:57.170Z,99567.98
2018-02-27T19:24:26.570Z,99570.46
2018-02-27T19:26:54.155Z,99582.72
2018-02-27T19:29:21.698Z,99574.29
2018-02-27T19:31:49.309Z,99583.39
2018-02-27T19:34:16.803Z,99587.59
2018-02-27T19:36:44.268Z,99587.78
2018-02-27T19:39:11.867Z,99582.26
2018-02-27T19:41:39.407Z,99577.55
2018-02-27T19:44:06.910Z,99585.72
2018-02-27T19:46:34.835Z,99587.77
2018-02-27T19:49:02.452Z,99588.17
2018-02-27T19:51:30.073Z,99585.08
2018-02-27T19:53:57.665Z,99584.94
2018-02-27T19:56:25.324Z,99591.77
2018-02-27T19:58:52.890Z,99601.73
2018-02-27T20:01:20.501Z,99587.02
2018-02-27T20:03:48.064Z,99582.81
2018-02-27T20:06:15.617Z,99591.21
2018-02-27T20:08:46.183Z,99589.03
2018-02-27T20:11:13.790Z,99613.36
2018-02-27T20:13:41.393Z,99596.06
2018-02-27T20:16:09.339Z,99591.11
2018-02-27T20:18:37.224Z,99586.86
2018-02-27T20:21:04.812Z,99597.50
2018-02-27T20:23:37.920Z,99601.52
2018-02-27T20:26:06.414Z,99601.03
2018-02-27T20:28:39.682Z,99606.94
2018-02-27T20:31:07.290Z,99614.80
2018-02-27T20:33:38.206Z,99617.81
2018-02-27T20:36:05.741Z,99608.73
2018-02-27T20:38:38.984Z,99611.08
2018-02-27T20:41:06.543Z,99608.59
2018-02-27T20:43:34.084Z,99609.75
2018-02-27T20:46:01.568Z,99619.66
2018-02-27T20:48:29.521Z,99623.38
2018-02-27T20:50:57.023Z,99629.14
2018-02-27T20:53:24.525Z,99620.41
2018-02-27T20:55:53.207Z,99616.12
2018-02-27T20:58:20.884Z,99618.92
2018-02-27T21:00:49.055Z,99611.55
2018-02-27T21:03:17.684Z,99614.34
2018-02-27T21:05:46.698Z,99616.56
2018-02-27T21:08:14.659Z,99615.31
2018-02-27T21:10:42.524Z,99614.69
2018-02-27T21:13:10.053Z,99619.60
2018-02-27T21:15:37.556Z,99625.56
2018-02-27T21:18:06.296Z,99622.88
2018-02-27T21:20:35.725Z,99622.59
2018-02-27T21:23:03.332Z,99620.06
2018-02-27T21:25:32.834Z,99616.89
2018-02-27T21:28:00.794Z,99627.53
2018-02-27T21:30:28.601Z,99622.50
2018-02-27T21:32:56.430Z,99631.88
2018-02-27T21:35:24.517Z,99632.12
2018-02-27T21:37:53.102Z,99634.63
2018-02-27T21:40:20.628Z,99633.89
2018-02-27T21:55:45.268Z,99637.00
2018-02-27T21:58:12.916Z,99632.34
2018-02-27T22:00:40.784Z,99645.23
2018-02-27T22:03:08.672Z,99648.95
2018-02-27T22:05:36.254Z,99641.15
2018-02-27T22:08:03.869Z,99637.52
2018-02-27T22:10:32.892Z,99651.66
2018-02-27T22:13:00.575Z,99644.61
2018-02-27T22:15:28.110Z,99647.34
2018-02-27T22:17:55.663Z,99646.81
2018-02-27T22:20:23.216Z,99645.54
2018-02-27T22:22:50.768Z,99668.53
2018-02-27T22:25:18.748Z,99658.02
2018-02-27T22:27:46.306Z,99668.73
2018-02-27T22:30:14.140Z,99657.24
2018-02-27T22:32:41.729Z,99661.75
2018-02-27T22:35:09.322Z,99668.35
2018-02-27T22:37:37.122Z,99659.41
2018-02-27T22:40:04.657Z,99667.26
2018-02-27T22:42:32.294Z,99665.70
2018-02-27T22:44:59.817Z,99675.30
2018-02-27T22:47:27.310Z,99675.80
2018-02-27T22:49:54.824Z,99667.33
2018-02-27T22:52:22.408Z,99662.50
2018-02-27T22:54:49.974Z,99678.07
2018-02-27T22:57:17.631Z,99694.16
2018-02-27T22:59:45.213Z,99669.86
2018-02-27T23:02:12.775Z,99669.17
2018-02-27T23:04:40.367Z,99672.77
2018-02-27T23:07:09.200Z,99680.09
2018-02-27T23:09:36.734Z,99676.31
2018-02-27T23:12:04.447Z,99676.89
2018-02-27T23:14:32.158Z,99682.30
2018-02-27T23:16:59.671Z,99698.99
2018-02-27T23:19:29.249Z,99678.70
2018-02-27T23:22:07.936Z,99677.75
2018-02-27T23:24:54.665Z,99684.34
2018-02-27T23:27:23.632Z,99686.30
2018-02-27T23:29:52.491Z,99688.95
2018-02-27T23:32:21.474Z,99691.52
2018-02-27T23:34:52.189Z,99710.40
2018-02-27T23:37:19.678Z,99687.66
2018-02-27T23:39:47.169Z,99690.91
2018-02-27T23:42:14.692Z,99683.56
2018-02-27T23:44:42.267Z,99680.63
2018-02-27T23:47:10.352Z,99674.27
2018-02-27T23:49:41.284Z,99683.25
2018-02-27T23:52:08.793Z,99686.27
2018-02-27T23:54:36.280Z,99703.58
2018-02-27T23:57:03.803Z,99667.33
2018-02-27T23:59:31.285Z,99680.52
